Terminal Aerodrome Forecast
Issued by NWS Wichita, KS

Home | Current Version | Previous Version | Text Only | Print | Product List | Glossary Off
Versions: 1 2 3 4 5 6 7 8 9 10 11 12 13 14 15 16 17 18 19

514
FTUS43 KICT 272325
TAFICT
TAF
KICT 272325Z 2800/2824 06006KT P6SM OVC017
     FM280600 09004KT P6SM OVC015
     FM280900 09004KT 4SM BR OVC005
     FM281500 09007KT P6SM BKN007
     FM282000 09014G21KT P6SM BKN035=

USA.gov is the U.S. government's official web portal to all federal, state and local government web resources and services.